Time;durP1;ratioP1;P1;durP2;ratioP2;P2;SDS_P1;SDS_P2;PMS_P1;PMS_P2;Temp;Humidity;BMP_temperature;BMP_pressure;BME280_temperature;BME280_humidity;BME280_pressure;Samples;Min_cycle;Max_cycle;Signal;HPM_P1;HPM_P2
2023/06/04 00:01:46;;;;;;;6.80;1.90;;;;;;;10.47;64.22;100494.08;105625;1260;68217;-77
2023/06/04 00:04:14;;;;;;;3.40;1.90;;;;;;;10.58;64.28;100495.52;105731;1257;72710;-74
2023/06/04 00:06:42;;;;;;;3.60;1.60;;;;;;;10.61;64.06;100499.54;105656;1262;60506;-76
2023/06/04 00:09:09;;;;;;;5.00;1.90;;;;;;;10.57;64.33;100499.16;105609;1254;60620;-76
2023/06/04 00:11:37;;;;;;;3.40;1.70;;;;;;;10.53;64.16;100496.06;105545;1254;74356;-73
2023/06/04 00:14:04;;;;;;;4.20;1.70;;;;;;;10.49;64.50;100498.92;105712;1254;70092;-74
2023/06/04 00:16:35;;;;;;;2.90;2.00;;;;;;;10.43;64.55;100499.77;105585;1260;72490;-77
2023/06/04 00:19:02;;;;;;;3.10;1.90;;;;;;;10.40;64.80;100501.17;105654;1258;60547;-76
2023/06/04 00:21:30;;;;;;;2.70;1.80;;;;;;;10.36;65.12;100504.75;105967;1257;60501;-75
2023/06/04 00:23:57;;;;;;;2.30;1.80;;;;;;;10.30;64.68;100506.14;108599;1254;72970;-75
2023/06/04 00:26:25;;;;;;;4.70;1.50;;;;;;;10.27;64.96;100505.41;108295;1254;69048;-74
2023/06/04 00:28:54;;;;;;;4.10;1.90;;;;;;;10.22;64.82;100504.27;108142;1254;71636;-73
2023/06/04 00:31:22;;;;;;;5.40;1.50;;;;;;;10.16;65.08;100506.45;107468;1256;60578;-75
2023/06/04 00:33:49;;;;;;;2.20;1.70;;;;;;;10.11;65.15;100509.58;105903;1254;60552;-76
2023/06/04 00:36:16;;;;;;;2.60;1.60;;;;;;;10.06;65.12;100510.38;105839;1254;73122;-77
2023/06/04 00:38:44;;;;;;;2.60;1.60;;;;;;;10.02;65.34;100508.49;105646;1254;68704;-76
2023/06/04 00:41:12;;;;;;;3.50;1.70;;;;;;;9.98;65.33;100509.17;105480;1258;72469;-75
2023/06/04 00:43:39;;;;;;;2.10;1.50;;;;;;;9.94;65.85;100510.95;105684;1259;60522;-75
2023/06/04 00:46:07;;;;;;;3.00;1.90;;;;;;;9.92;65.84;100509.26;105618;1254;60613;-77
2023/06/04 00:48:36;;;;;;;5.40;1.50;;;;;;;9.88;65.94;100510.03;106409;1257;73995;-76
2023/06/04 00:51:04;;;;;;;2.60;1.50;;;;;;;9.82;65.82;100507.30;106717;1254;71371;-76
2023/06/04 00:53:32;;;;;;;6.00;1.70;;;;;;;9.79;65.90;100509.94;108564;1257;71486;-77
2023/06/04 00:56:00;;;;;;;4.00;1.70;;;;;;;9.77;66.31;100507.98;106517;1254;61250;-76
2023/06/04 00:58:27;;;;;;;3.60;1.70;;;;;;;9.78;66.16;100510.89;105636;1261;60445;-77
2023/06/04 01:00:55;;;;;;;4.20;1.70;;;;;;;9.77;66.26;100512.42;105474;1256;74203;-78
2023/06/04 01:03:22;;;;;;;4.10;1.70;;;;;;;9.73;66.43;100514.89;105555;1262;70015;-79
2023/06/04 01:06:04;;;;;;;3.40;1.90;;;;;;;9.72;66.54;100519.83;105919;1257;194280;-77
2023/06/04 01:09:28;;;;;;;4.70;2.20;;;;;;;9.72;66.72;100515.38;102750;1293;599637;-76
2023/06/04 01:11:59;;;;;;;4.30;2.40;;;;;;;9.71;66.67;100515.46;105153;1262;59664;-77
2023/06/04 01:14:26;;;;;;;2.80;2.10;;;;;;;9.70;67.15;100514.83;105584;1267;60187;-76
2023/06/04 01:17:17;;;;;;;4.90;2.20;;;;;;;9.69;66.95;100514.08;105831;1269;72265;-76
2023/06/04 01:20:23;;;;;;;3.30;1.80;;;;;;;9.66;67.18;100516.45;107829;1264;69287;-75
2023/06/04 01:22:56;;;;;;;3.80;1.60;;;;;;;9.82;66.69;100518.67;108056;1261;165534;-78
2023/06/04 01:25:33;;;;;;;1.80;1.30;;;;;;;9.87;66.81;100521.17;106973;1262;60913;-76
2023/06/04 01:28:03;;;;;;;2.30;1.50;;;;;;;9.83;66.81;100519.45;106565;1267;59163;-76
2023/06/04 01:30:32;;;;;;;3.20;1.80;;;;;;;9.78;66.51;100519.05;105453;1262;72280;-77
2023/06/04 01:33:00;;;;;;;5.30;1.60;;;;;;;9.75;66.79;100523.89;105804;1265;69070;-77
2023/06/04 01:35:28;;;;;;;6.10;2.10;;;;;;;9.73;66.86;100524.55;105516;1262;71494;-74
2023/06/04 01:37:55;;;;;;;2.80;1.60;;;;;;;9.69;66.95;100521.89;106036;1268;59717;-75
2023/06/04 01:40:23;;;;;;;2.50;1.70;;;;;;;9.63;66.85;100523.48;107237;1261;60024;-76
2023/06/04 01:42:51;;;;;;;5.40;1.90;;;;;;;9.60;66.93;100525.17;105705;1262;73006;-75
2023/06/04 01:45:18;;;;;;;3.30;1.40;;;;;;;9.57;66.97;100528.56;105609;1263;70020;-76
2023/06/04 01:47:46;;;;;;;2.30;1.60;;;;;;;9.55;66.78;100531.11;106005;1261;71517;-78
2023/06/04 01:50:13;;;;;;;3.50;1.70;;;;;;;9.53;67.14;100530.89;107796;1260;60727;-78
2023/06/04 01:52:41;;;;;;;3.80;1.40;;;;;;;9.54;66.88;100533.46;107209;1262;59059;-79
2023/06/04 01:55:11;;;;;;;3.80;1.60;;;;;;;9.53;66.91;100535.19;105865;1265;75025;-77
2023/06/04 01:57:40;;;;;;;3.50;1.80;;;;;;;9.49;67.20;100532.84;105250;1269;69750;-75
2023/06/04 02:00:10;;;;;;;4.10;2.10;;;;;;;9.48;67.14;100535.86;105044;1262;72829;-76
2023/06/04 02:02:42;;;;;;;2.50;1.70;;;;;;;9.46;67.28;100534.08;106087;1265;60102;-76
2023/06/04 02:05:10;;;;;;;3.40;1.70;;;;;;;9.45;67.32;100533.43;106808;1255;59686;-74
2023/06/04 02:07:38;;;;;;;5.70;2.10;;;;;;;9.46;67.10;100532.09;106760;1256;71821;-75
2023/06/04 02:10:09;;;;;;;3.60;1.60;;;;;;;9.44;67.39;100536.52;106576;1256;68878;-78
2023/06/04 02:12:38;;;;;;;2.60;1.80;;;;;;;9.43;67.26;100539.21;106706;1256;72825;-75
2023/06/04 02:15:07;;;;;;;5.40;2.00;;;;;;;9.44;66.78;100540.02;107106;1256;59780;-76
2023/06/04 02:17:39;;;;;;;4.50;1.60;;;;;;;9.46;66.96;100536.37;107311;1256;60350;-75
2023/06/04 02:20:09;;;;;;;2.50;1.60;;;;;;;9.48;66.99;100542.02;108937;1254;71038;-74
2023/06/04 02:22:37;;;;;;;4.50;2.10;;;;;;;9.50;67.30;100540.92;106682;1256;69581;-74
2023/06/04 02:25:05;;;;;;;3.30;1.60;;;;;;;9.52;67.21;100545.32;105763;1256;71790;-73
2023/06/04 02:27:32;;;;;;;5.20;1.80;;;;;;;9.64;67.36;100546.19;105745;1256;60425;-78
2023/06/04 02:30:00;;;;;;;6.20;1.80;;;;;;;9.77;67.00;100545.17;105725;1255;60109;-77
2023/06/04 02:32:28;;;;;;;3.40;2.00;;;;;;;9.80;67.34;100545.91;105723;1256;71862;-78
2023/06/04 02:34:56;;;;;;;3.60;2.00;;;;;;;9.82;67.10;100543.81;105803;1256;70258;-77
2023/06/04 02:37:24;;;;;;;4.70;1.70;;;;;;;9.85;67.13;100546.16;105781;1256;72692;-78
2023/06/04 02:39:51;;;;;;;5.00;2.10;;;;;;;9.88;67.22;100544.28;105720;1256;59746;-75
2023/06/04 02:42:19;;;;;;;3.90;1.80;;;;;;;9.91;66.88;100544.17;105796;1256;59547;-75
2023/06/04 02:44:46;;;;;;;4.70;1.90;;;;;;;9.93;67.14;100543.66;105721;1261;73044;-75
2023/06/04 02:47:14;;;;;;;6.90;1.80;;;;;;;9.95;67.27;100542.55;106788;1254;70846;-72
2023/06/04 02:49:41;;;;;;;6.50;1.90;;;;;;;9.97;66.78;100544.86;107955;1254;72671;-72
2023/06/04 02:52:09;;;;;;;7.10;2.00;;;;;;;9.98;66.92;100547.21;106644;1258;59645;-73
2023/06/04 02:54:36;;;;;;;5.50;1.90;;;;;;;10.02;66.98;100549.90;105700;1256;59746;-74
2023/06/04 02:57:04;;;;;;;3.50;1.90;;;;;;;10.03;67.06;100552.91;105916;1256;71772;-73
2023/06/04 02:59:32;;;;;;;7.40;2.00;;;;;;;10.07;67.10;100556.50;105792;1256;68756;-73
2023/06/04 03:02:00;;;;;;;8.90;2.10;;;;;;;10.08;67.10;100558.18;105577;1257;71263;-74
2023/06/04 03:04:34;;;;;;;7.20;2.10;;;;;;;10.09;67.32;100562.15;105605;1253;59650;-76
2023/06/04 03:07:02;;;;;;;5.70;2.20;;;;;;;10.09;67.05;100563.40;105881;1258;59556;-74
2023/06/04 03:09:33;;;;;;;7.00;1.90;;;;;;;10.10;66.85;100564.35;105784;1256;71794;-73
2023/06/04 03:12:01;;;;;;;4.20;2.00;;;;;;;10.13;67.02;100569.54;105425;1260;69169;-75
2023/06/04 03:14:33;;;;;;;8.20;2.20;;;;;;;10.17;67.03;100573.77;105547;1253;71848;-74
2023/06/04 03:17:01;;;;;;;5.40;1.80;;;;;;;10.21;66.92;100578.33;107448;1253;60021;-73
2023/06/04 03:19:28;;;;;;;5.50;2.10;;;;;;;10.26;67.17;100580.38;107571;1253;59544;-74
2023/06/04 03:21:56;;;;;;;4.20;2.00;;;;;;;10.32;67.10;100582.45;106177;1259;71756;-74
2023/06/04 03:24:24;;;;;;;3.00;1.50;;;;;;;10.39;66.92;100580.41;105736;1260;69326;-73
2023/06/04 03:26:51;;;;;;;7.70;1.80;;;;;;;10.45;66.93;100581.22;105835;1259;71383;-74
2023/06/04 03:29:19;;;;;;;4.30;1.80;;;;;;;10.53;66.84;100584.59;105237;1261;59749;-73
2023/06/04 03:31:48;;;;;;;6.50;2.00;;;;;;;10.60;66.51;100581.79;105903;1254;59736;-74
2023/06/04 03:34:15;;;;;;;4.10;2.20;;;;;;;10.67;66.43;100580.71;105611;1253;72880;-74
2023/06/04 03:36:42;;;;;;;5.50;2.50;;;;;;;10.75;65.97;100582.60;105679;1260;69059;-76
2023/06/04 03:39:11;;;;;;;4.20;1.90;;;;;;;10.83;65.79;100582.39;105745;1256;71613;-74
2023/06/04 03:41:38;;;;;;;3.20;2.00;;;;;;;10.92;65.50;100579.34;105645;1260;59685;-77
2023/06/04 03:44:14;;;;;;;3.70;1.70;;;;;;;11.02;65.33;100575.25;105591;1255;59623;-75
2023/06/04 03:47:22;;;;;;;5.10;2.20;;;;;;;11.13;65.32;100575.92;108111;1258;73126;-74
2023/06/04 03:49:50;;;;;;;3.20;2.00;;;;;;;11.24;65.67;100575.22;106684;1256;70078;-76
2023/06/04 03:52:18;;;;;;;8.90;2.40;;;;;;;11.35;65.35;100574.99;106905;1256;71074;-73
2023/06/04 03:54:46;;;;;;;3.60;2.10;;;;;;;11.45;64.67;100572.38;106600;1253;60187;-75
2023/06/04 03:57:13;;;;;;;2.80;2.00;;;;;;;11.56;64.16;100573.20;106126;1253;59790;-77
2023/06/04 03:59:41;;;;;;;2.10;1.40;;;;;;;11.67;63.13;100568.77;105701;1253;73158;-76
2023/06/04 04:02:08;;;;;;;3.00;1.90;;;;;;;11.78;63.14;100569.60;105859;1258;69364;-74
2023/06/04 04:04:39;;;;;;;2.70;1.40;;;;;;;11.90;62.50;100568.45;106059;1257;71237;-75
2023/06/04 04:07:07;;;;;;;4.00;1.70;;;;;;;12.01;61.66;100569.03;106146;1257;59600;-75
2023/06/04 04:09:35;;;;;;;5.50;1.40;;;;;;;12.11;60.58;100569.32;105824;1253;60010;-74
2023/06/04 04:12:04;;;;;;;3.70;1.80;;;;;;;12.23;60.81;100575.41;105797;1253;73428;-74
2023/06/04 04:14:33;;;;;;;4.10;2.00;;;;;;;12.34;60.69;100579.54;106904;1261;68302;-71
2023/06/04 04:17:01;;;;;;;2.20;1.60;;;;;;;12.45;60.34;100584.69;108050;1256;71414;-74
2023/06/04 04:19:30;;;;;;;4.70;1.60;;;;;;;12.56;60.11;100587.36;108560;1253;59723;-76
2023/06/04 04:21:58;;;;;;;2.80;1.80;;;;;;;12.69;59.96;100591.73;106708;1254;59619;-76
2023/06/04 04:24:27;;;;;;;3.90;1.90;;;;;;;12.81;59.27;100594.05;105868;1255;72322;-77
2023/06/04 04:26:58;;;;;;;4.50;1.90;;;;;;;12.94;58.70;100596.86;105734;1260;69083;-75
2023/06/04 04:29:27;;;;;;;4.90;2.10;;;;;;;13.10;58.73;100592.55;105759;1257;72747;-75
2023/06/04 04:31:56;;;;;;;4.20;2.60;;;;;;;13.30;58.31;100594.91;105627;1257;60155;-75
2023/06/04 04:34:26;;;;;;;3.80;2.40;;;;;;;13.49;57.66;100592.30;105463;1258;60017;-76
2023/06/04 04:36:54;;;;;;;2.50;2.20;;;;;;;13.72;56.83;100592.51;105728;1253;71892;-74
2023/06/04 04:39:23;;;;;;;4.70;2.80;;;;;;;13.91;55.70;100592.88;105621;1254;71994;-76
2023/06/04 04:41:51;;;;;;;6.60;2.50;;;;;;;14.11;54.86;100594.16;105791;1256;70267;-76
2023/06/04 04:44:19;;;;;;;4.70;2.70;;;;;;;14.29;54.04;100596.92;107244;1253;60095;-72
2023/06/04 04:46:50;;;;;;;4.60;2.30;;;;;;;14.45;53.57;100594.72;107745;1253;60124;-76
2023/06/04 04:49:17;;;;;;;4.30;2.30;;;;;;;14.62;53.29;100596.77;106771;1253;71569;-77
2023/06/04 04:51:45;;;;;;;5.00;2.60;;;;;;;14.75;52.80;100592.50;106127;1259;68941;-75
2023/06/04 04:54:13;;;;;;;5.80;3.10;;;;;;;14.84;52.46;100590.41;105921;1255;70689;-76
2023/06/04 04:56:41;;;;;;;4.20;2.30;;;;;;;14.91;51.91;100590.48;105734;1253;60330;-75
2023/06/04 04:59:08;;;;;;;6.50;2.10;;;;;;;15.07;51.76;100586.91;106925;1254;59513;-75
2023/06/04 05:01:35;;;;;;;3.60;2.30;;;;;;;15.29;51.18;100585.63;108826;1253;71808;-73
2023/06/04 05:04:05;;;;;;;3.60;2.20;;;;;;;15.46;50.50;100584.65;107220;1260;69359;-73
2023/06/04 05:06:37;;;;;;;3.50;2.20;;;;;;;15.58;50.15;100587.88;105766;1259;71247;-73
2023/06/04 05:09:07;;;;;;;3.40;2.30;;;;;;;15.69;49.93;100587.35;105705;1259;59624;-75
2023/06/04 05:11:35;;;;;;;3.90;2.10;;;;;;;15.76;49.30;100585.81;105645;1260;60160;-74
2023/06/04 05:14:03;;;;;;;5.30;2.10;;;;;;;15.80;48.81;100589.29;108297;1254;72827;-74
2023/06/04 05:16:31;;;;;;;7.20;3.00;;;;;;;15.83;48.45;100588.75;106754;1257;69023;-75
2023/06/04 05:19:00;;;;;;;6.10;2.50;;;;;;;15.87;48.15;100589.52;105616;1254;72457;-75
2023/06/04 05:21:29;;;;;;;5.90;2.30;;;;;;;15.93;47.63;100593.16;105942;1256;61179;-73
2023/06/04 05:27:15;;;;;;;3.00;1.90;;;;;;;15.99;46.61;100592.09;102615;1268;961171;-71
2023/06/04 05:29:43;;;;;;;2.00;1.40;;;;;;;15.99;46.27;100593.83;104467;1271;70564;-71
2023/06/04 05:32:11;;;;;;;2.30;1.50;;;;;;;15.97;45.75;100598.21;104543;1271;71706;-70
2023/06/04 05:34:39;;;;;;;4.50;2.00;;;;;;;15.89;44.95;100599.65;104676;1274;60440;-70
2023/06/04 05:37:08;;;;;;;2.00;1.40;;;;;;;15.84;44.68;100597.55;104740;1270;60545;-71
2023/06/04 05:39:39;;;;;;;3.20;1.80;;;;;;;15.78;44.85;100591.82;104708;1271;73886;-72
2023/06/04 05:42:11;;;;;;;3.60;2.20;;;;;;;15.79;45.23;100592.60;104643;1270;69135;-73
2023/06/04 05:44:39;;;;;;;2.40;1.70;;;;;;;15.81;45.74;100593.27;104800;1268;72539;-73
2023/06/04 05:47:07;;;;;;;3.50;1.80;;;;;;;15.82;46.33;100594.75;104668;1266;60520;-73
2023/06/04 05:49:35;;;;;;;3.90;1.90;;;;;;;15.82;47.17;100592.41;104636;1266;60399;-73
2023/06/04 05:52:03;;;;;;;3.00;1.70;;;;;;;15.84;47.12;100592.90;104424;1265;72229;-74
2023/06/04 05:54:32;;;;;;;4.40;1.80;;;;;;;15.85;46.18;100587.50;105141;1269;69103;-75
2023/06/04 05:57:00;;;;;;;2.30;1.60;;;;;;;15.81;46.23;100589.71;104865;1268;72979;-72
2023/06/04 05:59:29;;;;;;;4.60;1.90;;;;;;;15.80;46.54;100593.39;104619;1270;60480;-69
2023/06/04 06:01:57;;;;;;;2.40;1.80;;;;;;;15.84;46.75;100596.44;104822;1269;60898;-74
2023/06/04 06:04:25;;;;;;;4.20;1.60;;;;;;;15.88;46.62;100598.65;104743;1271;72804;-78
2023/06/04 06:06:53;;;;;;;1.90;1.70;;;;;;;15.89;46.10;100600.14;104928;1269;70919;-75
2023/06/04 06:09:21;;;;;;;2.20;1.50;;;;;;;15.86;45.66;100596.14;104539;1269;72845;-77
2023/06/04 06:11:49;;;;;;;5.70;2.50;;;;;;;15.86;46.63;100593.42;104488;1274;60369;-76
2023/06/04 06:14:16;;;;;;;2.60;1.60;;;;;;;15.89;47.16;100600.35;104724;1265;60808;-78
2023/06/04 06:16:45;;;;;;;2.60;1.80;;;;;;;15.93;47.02;100601.73;104883;1272;72667;-76
2023/06/04 06:19:13;;;;;;;2.30;1.40;;;;;;;15.94;46.23;100599.11;105319;1271;69152;-76
2023/06/04 06:21:40;;;;;;;4.20;1.40;;;;;;;15.91;46.32;100595.88;104538;1274;72711;-77
2023/06/04 06:24:08;;;;;;;5.50;1.90;;;;;;;15.93;46.30;100598.48;104747;1274;60586;-76
2023/06/04 06:26:37;;;;;;;3.40;1.40;;;;;;;16.00;45.69;100597.47;104910;1274;60494;-77
2023/06/04 06:29:05;;;;;;;3.10;1.30;;;;;;;16.08;44.71;100600.24;104663;1269;72097;-75
2023/06/04 06:31:33;;;;;;;2.80;1.50;;;;;;;16.19;43.73;100601.34;105036;1267;70496;-76
2023/06/04 06:34:01;;;;;;;3.20;1.20;;;;;;;16.25;43.14;100598.17;104759;1270;72729;-76
2023/06/04 06:36:29;;;;;;;1.70;1.10;;;;;;;16.31;42.95;100599.98;104533;1269;60547;-78
2023/06/04 06:38:57;;;;;;;2.30;1.50;;;;;;;16.38;42.60;100599.95;104487;1266;61853;-76
2023/06/04 06:41:26;;;;;;;1.10;0.90;;;;;;;16.42;41.47;100600.39;104479;1272;73962;-76
2023/06/04 06:43:53;;;;;;;1.70;1.10;;;;;;;16.41;40.70;100605.08;105047;1274;68477;-77
2023/06/04 06:46:20;;;;;;;2.60;1.00;;;;;;;16.42;40.37;100607.15;104618;1271;72984;-75
2023/06/04 06:48:48;;;;;;;2.20;1.10;;;;;;;16.44;40.30;100607.84;104710;1271;60580;-76
2023/06/04 06:51:16;;;;;;;1.90;1.10;;;;;;;16.44;40.08;100605.66;104461;1274;60548;-74
2023/06/04 06:53:43;;;;;;;2.50;1.00;;;;;;;16.44;40.33;100606.27;104879;1274;74005;-75
2023/06/04 06:56:11;;;;;;;1.20;1.00;;;;;;;16.48;40.09;100611.05;104753;1279;69019;-75
2023/06/04 06:58:38;;;;;;;3.70;1.20;;;;;;;16.48;39.17;100611.31;104803;1271;71636;-76
2023/06/04 07:01:06;;;;;;;1.50;1.10;;;;;;;16.43;39.14;100610.71;104631;1274;60404;-78
2023/06/04 07:03:34;;;;;;;1.60;1.20;;;;;;;16.38;39.25;100609.64;105076;1272;60524;-78
2023/06/04 07:06:02;;;;;;;1.10;0.90;;;;;;;16.29;38.53;100611.84;105049;1271;73832;-76
2023/06/04 07:08:29;;;;;;;2.20;0.80;;;;;;;16.20;38.59;100614.32;104850;1271;70028;-75
2023/06/04 07:10:57;;;;;;;1.00;1.00;;;;;;;16.15;38.59;100612.33;104586;1271;71065;-80
2023/06/04 07:13:25;;;;;;;1.10;1.00;;;;;;;16.14;38.57;100611.73;104919;1284;60581;-79
2023/06/04 07:15:53;;;;;;;4.20;1.20;;;;;;;16.12;38.60;100610.67;104563;1266;60687;-76
2023/06/04 07:18:20;;;;;;;0.90;0.90;;;;;;;16.16;38.90;100608.14;104830;1272;74057;-77
2023/06/04 07:20:48;;;;;;;0.90;0.80;;;;;;;16.23;38.96;100610.30;104480;1272;71036;-77
2023/06/04 07:23:15;;;;;;;2.40;1.20;;;;;;;16.31;39.00;100614.10;104887;1274;72515;-78
2023/06/04 07:25:54;;;;;;;2.40;1.30;;;;;;;16.40;39.13;100621.27;105243;1273;61576;-77
2023/06/04 07:28:22;;;;;;;3.30;1.00;;;;;;;16.44;38.80;100619.85;105435;1271;60474;-79
2023/06/04 07:30:50;;;;;;;1.20;1.00;;;;;;;16.44;38.46;100620.52;105140;1273;74048;-74
2023/06/04 07:33:17;;;;;;;4.50;1.30;;;;;;;16.39;38.80;100619.94;104776;1273;70150;-73
2023/06/04 07:35:45;;;;;;;2.20;1.10;;;;;;;16.41;39.15;100616.18;104572;1272;72775;-75
2023/06/04 07:38:12;;;;;;;3.30;1.10;;;;;;;16.47;39.07;100613.78;104693;1272;60457;-76
2023/06/04 07:40:40;;;;;;;2.90;1.40;;;;;;;16.55;39.16;100609.70;104701;1271;61028;-76
2023/06/04 07:43:07;;;;;;;3.70;1.40;;;;;;;16.62;39.10;100609.40;104766;1271;74081;-77
2023/06/04 07:45:35;;;;;;;2.10;1.40;;;;;;;16.67;39.28;100610.67;104846;1270;68927;-76
2023/06/04 07:48:03;;;;;;;1.80;1.60;;;;;;;16.73;38.96;100610.56;104807;1274;71360;-75
2023/06/04 07:50:30;;;;;;;1.30;1.10;;;;;;;16.78;38.91;100608.33;104681;1273;60553;-78
2023/06/04 07:53:02;;;;;;;2.10;1.20;;;;;;;16.85;38.86;100599.40;104924;1268;60572;-75
2023/06/04 07:55:31;;;;;;;3.40;1.00;;;;;;;16.92;39.06;100608.10;104783;1266;73071;-78
2023/06/04 07:57:59;;;;;;;3.70;1.50;;;;;;;17.00;39.00;100608.73;104819;1274;68059;-77
2023/06/04 08:00:26;;;;;;;3.10;1.60;;;;;;;17.08;39.01;100605.55;104809;1271;71217;-79
2023/06/04 08:02:53;;;;;;;2.60;1.30;;;;;;;17.15;38.49;100604.12;104815;1271;60570;-77
2023/06/04 08:05:21;;;;;;;1.30;1.20;;;;;;;17.20;38.45;100603.77;104926;1275;60432;-77
2023/06/04 08:07:48;;;;;;;2.70;1.60;;;;;;;17.24;37.65;100606.90;104698;1273;73875;-78
2023/06/04 08:10:16;;;;;;;2.20;1.30;;;;;;;17.21;37.49;100609.36;105091;1270;70305;-78
2023/06/04 08:12:43;;;;;;;4.40;1.40;;;;;;;17.17;37.70;100610.30;105026;1272;71522;-75
2023/06/04 08:15:11;;;;;;;1.80;1.30;;;;;;;17.20;37.85;100604.66;105057;1272;60480;-76
2023/06/04 08:17:39;;;;;;;1.90;1.00;;;;;;;17.27;37.93;100604.78;104646;1272;60551;-76
2023/06/04 08:20:07;;;;;;;2.90;1.30;;;;;;;17.34;37.74;100604.28;104806;1267;73564;-78
2023/06/04 08:22:35;;;;;;;2.10;1.20;;;;;;;17.42;37.97;100606.20;104850;1267;70327;-76
2023/06/04 08:25:04;;;;;;;1.60;1.10;;;;;;;17.51;37.29;100607.98;104928;1273;71507;-80
2023/06/04 08:27:32;;;;;;;2.20;1.40;;;;;;;17.55;36.85;100604.75;105081;1272;60319;-77
2023/06/04 08:30:00;;;;;;;3.20;1.30;;;;;;;17.56;36.88;100595.83;105278;1267;60931;-79
2023/06/04 08:32:27;;;;;;;2.70;1.40;;;;;;;17.57;37.03;100595.27;105661;1271;74016;-75
2023/06/04 08:34:55;;;;;;;2.00;1.50;;;;;;;17.67;37.38;100596.77;105443;1270;69382;-79
2023/06/04 08:37:24;;;;;;;3.30;1.50;;;;;;;17.84;37.16;100600.93;105757;1272;72674;-80
2023/06/04 08:39:52;;;;;;;1.20;1.10;;;;;;;18.01;36.85;100591.63;106771;1273;60604;-80
2023/06/04 08:42:30;;;;;;;3.90;1.40;;;;;;;18.15;36.91;100594.86;106431;1267;60375;-76
2023/06/04 08:44:58;;;;;;;1.60;1.20;;;;;;;18.32;36.57;100601.80;106082;1271;72373;-78
2023/06/04 08:47:28;;;;;;;2.40;1.40;;;;;;;18.40;35.88;100598.29;106317;1267;68973;-78
2023/06/04 08:49:59;;;;;;;1.60;1.30;;;;;;;18.46;35.74;100595.48;106641;1267;71300;-80
2023/06/04 08:52:27;;;;;;;2.20;1.40;;;;;;;18.48;35.58;100590.17;105795;1270;61342;-78
2023/06/04 08:54:55;;;;;;;1.70;1.30;;;;;;;18.52;35.99;100589.32;106006;1267;60315;-78
2023/06/04 08:57:23;;;;;;;3.00;1.40;;;;;;;18.70;36.31;100594.05;106667;1267;72644;-78
2023/06/04 08:59:50;;;;;;;1.60;1.20;;;;;;;18.96;35.54;100589.57;105564;1267;69115;-75
2023/06/04 09:02:18;;;;;;;2.40;1.30;;;;;;;19.19;35.42;100589.26;105554;1272;71866;-76
2023/06/04 09:04:45;;;;;;;1.30;1.20;;;;;;;19.42;35.26;100592.95;105155;1267;61445;-77
2023/06/04 09:07:13;;;;;;;3.30;1.30;;;;;;;19.66;34.54;100591.89;105565;1267;61065;-78
2023/06/04 09:09:42;;;;;;;1.80;1.40;;;;;;;19.88;34.49;100586.84;105214;1275;72743;-75
2023/06/04 09:12:11;;;;;;;4.50;1.40;;;;;;;20.17;34.37;100577.51;105203;1273;68915;-75
2023/06/04 09:14:39;;;;;;;2.10;1.40;;;;;;;20.51;34.05;100567.75;105073;1274;71431;-75
2023/06/04 09:17:06;;;;;;;2.20;1.20;;;;;;;20.85;33.88;100563.25;105695;1267;60473;-81
2023/06/04 09:19:34;;;;;;;2.40;1.50;;;;;;;21.28;33.80;100563.87;106302;1270;60333;-76
2023/06/04 09:22:02;;;;;;;3.30;1.50;;;;;;;21.85;32.67;100567.80;106661;1272;72965;-79
2023/06/04 09:24:41;;;;;;;1.80;1.30;;;;;;;22.35;31.78;100568.14;106732;1275;69220;-83
2023/06/04 09:27:14;;;;;;;2.70;1.30;;;;;;;22.71;31.43;100564.00;106908;1270;73228;-80
2023/06/04 09:29:51;;;;;;;2.30;1.40;;;;;;;23.18;31.32;100570.38;106684;1269;59711;-80
2023/06/04 09:32:26;;;;;;;1.80;1.40;;;;;;;23.82;30.70;100562.20;106015;1270;59125;-78
2023/06/04 09:34:57;;;;;;;1.60;1.50;;;;;;;24.45;29.37;100552.96;106785;1273;72374;-77
2023/06/04 09:37:26;;;;;;;3.30;1.60;;;;;;;24.84;29.33;100550.78;107370;1268;68743;-82
2023/06/04 09:39:57;;;;;;;2.70;1.80;;;;;;;25.38;28.78;100551.39;106249;1270;70181;-81
2023/06/04 09:42:24;;;;;;;2.40;1.40;;;;;;;25.83;28.10;100544.11;106067;1276;60650;-82
2023/06/04 09:44:52;;;;;;;2.30;1.60;;;;;;;26.19;28.02;100540.60;107148;1268;60533;-80
2023/06/04 09:47:20;;;;;;;2.40;1.60;;;;;;;26.64;27.78;100544.91;107345;1268;72685;-82
2023/06/04 09:49:50;;;;;;;3.80;1.50;;;;;;;27.09;27.45;100546.73;107471;1268;69079;-81
2023/06/04 09:52:21;;;;;;;2.40;1.90;;;;;;;27.42;26.24;100545.54;107233;1270;71340;-82
2023/06/04 09:54:48;;;;;;;1.60;1.50;;;;;;;27.42;26.45;100539.27;108136;1268;59034;-81
2023/06/04 09:57:19;;;;;;;2.30;1.70;;;;;;;27.42;26.45;100536.54;108394;1268;58794;-79
2023/06/04 09:59:49;;;;;;;3.50;1.80;;;;;;;27.51;26.34;100535.77;107735;1268;73077;-82
2023/06/04 10:02:21;;;;;;;1.90;1.80;;;;;;;27.66;26.06;100529.94;107451;1269;71392;-83
2023/06/04 10:04:57;;;;;;;2.90;1.80;;;;;;;27.81;25.70;100526.64;107639;1270;72081;-80
2023/06/04 10:07:26;;;;;;;3.00;1.90;;;;;;;27.70;25.66;100518.83;107931;1268;60385;-80
2023/06/04 10:09:53;;;;;;;3.10;1.80;;;;;;;27.53;25.99;100516.15;107703;1268;59122;-82
2023/06/04 10:12:30;;;;;;;1.80;1.60;;;;;;;27.48;25.93;100517.15;107588;1268;72970;-84
2023/06/04 10:15:16;;;;;;;2.00;1.80;;;;;;;27.59;26.09;100514.55;107513;1268;69486;-81
2023/06/04 10:17:43;;;;;;;2.80;1.80;;;;;;;27.95;25.64;100507.69;106883;1270;70491;-81
2023/06/04 10:20:11;;;;;;;2.40;1.80;;;;;;;28.51;25.50;100499.67;106904;1268;60576;-81
2023/06/04 10:22:38;;;;;;;1.50;1.40;;;;;;;29.18;24.94;100503.58;107264;1268;60357;-81
2023/06/04 10:25:06;;;;;;;2.60;2.00;;;;;;;29.50;24.48;100507.52;107793;1269;72855;-82
2023/06/04 10:27:35;;;;;;;3.70;1.90;;;;;;;29.80;24.68;100501.61;107696;1270;69078;-81
2023/06/04 10:30:05;;;;;;;2.80;2.00;;;;;;;30.33;24.46;100502.09;107246;1268;73312;-84
2023/06/04 10:32:36;;;;;;;3.90;2.40;;;;;;;30.80;23.71;100502.27;107314;1269;58986;-83
2023/06/04 10:35:07;;;;;;;2.00;1.50;;;;;;;31.03;23.29;100498.27;107530;1270;59216;-82
2023/06/04 10:37:35;;;;;;;3.00;1.90;;;;;;;31.27;23.62;100499.34;107121;1268;72655;-79
2023/06/04 10:40:05;;;;;;;1.60;1.50;;;;;;;31.58;23.32;100494.68;107137;1272;69153;-81
2023/06/04 10:42:41;;;;;;;4.00;1.80;;;;;;;32.02;23.15;100487.48;107258;1270;73614;-84
2023/06/04 10:45:11;;;;;;;2.10;1.90;;;;;;;32.43;23.08;100484.02;107295;1268;59729;-80
2023/06/04 10:47:40;;;;;;;2.20;1.90;;;;;;;32.90;23.06;100478.77;107809;1268;58972;-79
2023/06/04 10:50:13;;;;;;;3.40;1.80;;;;;;;33.10;22.48;100478.61;107830;1270;72676;-81
2023/06/04 10:52:53;;;;;;;2.10;1.90;;;;;;;32.60;22.38;100476.79;108120;1268;68744;-80
2023/06/04 10:55:21;;;;;;;2.20;2.00;;;;;;;31.57;22.93;100484.23;107878;1268;71455;-78
2023/06/04 10:57:55;;;;;;;2.10;1.90;;;;;;;30.88;23.21;100482.02;108164;1268;60404;-78
2023/06/04 11:00:54;;;;;;;2.20;1.90;;;;;;;30.26;23.69;100475.64;108065;1267;59515;-79
2023/06/04 11:03:21;;;;;;;3.50;2.10;;;;;;;29.91;23.92;100469.05;107902;1267;72837;-79
2023/06/04 11:05:50;;;;;;;4.50;2.30;;;;;;;30.12;24.31;100459.38;107447;1267;68973;-79
2023/06/04 11:08:28;;;;;;;2.00;1.80;;;;;;;30.73;23.74;100458.33;107797;1267;71461;-79
2023/06/04 11:10:56;;;;;;;3.20;1.80;;;;;;;31.14;23.20;100455.23;107707;1268;60480;-77
2023/06/04 11:13:25;;;;;;;2.00;1.80;;;;;;;31.58;23.04;100450.30;107317;1268;62210;-76
2023/06/04 11:15:53;;;;;;;3.60;1.90;;;;;;;32.05;22.63;100445.86;107559;1266;72557;-78
2023/06/04 11:18:24;;;;;;;2.70;1.90;;;;;;;32.34;22.42;100437.93;108161;1267;69059;-79
2023/06/04 11:21:01;;;;;;;3.00;1.80;;;;;;;32.52;22.53;100441.48;108278;1268;71224;-81
2023/06/04 11:23:29;;;;;;;3.00;2.00;;;;;;;32.81;22.54;100431.48;108205;1268;61554;-81
2023/06/04 11:25:58;;;;;;;2.20;2.00;;;;;;;33.22;21.94;100434.09;108152;1267;58933;-81
2023/06/04 11:28:25;;;;;;;1.80;1.70;;;;;;;33.46;21.80;100435.96;108151;1271;72735;-78
2023/06/04 11:31:03;;;;;;;4.50;2.00;;;;;;;33.68;21.79;100437.32;108268;1268;68756;-80
2023/06/04 11:33:44;;;;;;;3.10;1.90;;;;;;;33.36;21.85;100447.16;108047;1268;71398;-83